METAR és
SPECI
METAR LHBP 221630Z 25007KT 9999 FEW035 SCT080 05/02 Q1019 NOSIG=
METAR LHBP 221600Z 25007KT 9999 FEW035 BKN082 05/01 Q1020 NOSIG=
METAR LHBP 221530Z 24009KT 9999 SCT049 BKN082 05/01 Q1020 NOSIG=
METAR LHBP 221500Z 23009KT 9999 -RA BKN049 05/02 Q1020 NOSIG=
METAR LHBP 221430Z 24007KT 9999 -RA FEW016 SCT046 BKN078 05/03 Q1020 NOSIG=
METAR LHBP 221400Z 23010KT 9999 -RA SCT032 BKN055 06/01 Q1020 NOSIG=
TAF
TAF LHBP 221100Z 2212/2312 24010KT CAVOK TEMPO 2212/2217 27015G25KT 9999 SCT048 BKN100 BECMG 2219/2222 29010KT=
GAMET
FAHU41 LHBM 221100
LHCC GAMET VALID 221200/221800 LHBP-
BUDAPEST FIR BLW FL100
SECN I
ICE: 12/16 MOD 5000/XXXFT AMSL NE OF LINE LHPR-LHUD
TURB: 12/18 MOD SFC/10000FT AMSL
SIGMETS APPLICABLE: NIL=
OMSZ: 2014. december 22. 11:56 (10:56  UTC)
[FAHU41]
AIRMET
Nincs érvényes távirat! 
WAHU41 LHBM 161000
LHCC AIRMET 01 VALID 161000/161200 LHBP-
LHCC BUDAPEST FIR SFC VIS 1000-3000 M OBS N OF LINE N4614
E01657 - N4820 E02219 STNR WKN=
SIGMET
Nincs érvényes távirat! 
WSHU31 LHBM 202200 CCA
LHCC SIGMET 05 VALID 202200/210130 LHBP-
LHCC BUDAPEST FIR EMBD TS OBS S OF N4720 AND E OF E01745
TOP FL240 MOV ESE WKN=
SIGMET
Vulkáni hamufelhő
Not valid product! 
WVHU31 LHBM 271515 CCA
LHCC SIGMET 03 VALID 271515/271800 LHBP-
LHCC BUDAPEST FIR EXERCISE VOLCEX12/01
CNL VA SIGMET 02 271200/271800
EXERCISE EXERCISE EXERCISE VOLCEX12/01=